Terminal Aerodrome Forecast
Issued by NWS Tuscon, AZ

Home | Current Version | Previous Version | Text Only | Print | Product List | Glossary On
Versions: 1 2 3 4 5 6 7 8 9 10 11 12 13 14 15 16 17 18 19 20 21 22
000
FTUS45 KTWC 311100
TAFTUS
TAF
KTUS 311139Z 3112/0112 14005KT 6SM -RA BR SCT005 OVC035
     FM311500 18008KT P6SM -SHRA SCT025 OVC040
     FM312300 09005KT P6SM VCSH SCT050 OVC070
     FM010500 14006KT P6SM FEW015 SCT060 OVC080=

USA.gov is the U.S. government's official web portal to all federal, state and local government web resources and services.